createdAt,value
2022-08-19T00:00:22.986Z,19.41
2022-08-19T00:03:10.082Z,19.42
2022-08-19T00:05:57.059Z,19.40
2022-08-19T00:08:44.339Z,19.37
2022-08-19T00:11:31.473Z,19.40
2022-08-19T00:14:19.307Z,19.40
2022-08-19T00:17:07.599Z,19.36
2022-08-19T00:19:54.603Z,19.33
2022-08-19T00:22:42.490Z,19.26
2022-08-19T00:25:30.407Z,19.28
2022-08-19T00:28:17.814Z,19.31
2022-08-19T00:31:05.710Z,19.30
2022-08-19T00:33:52.809Z,19.25
2022-08-19T00:36:41.141Z,19.21
2022-08-19T00:39:28.182Z,19.26
2022-08-19T00:42:16.581Z,19.17
2022-08-19T00:45:09.661Z,19.18
2022-08-19T00:47:56.634Z,19.14
2022-08-19T00:50:52.002Z,19.03
2022-08-19T00:53:40.754Z,19.02
2022-08-19T00:56:28.052Z,18.93
2022-08-19T00:59:17.083Z,18.84
2022-08-19T01:02:24.281Z,18.70
2022-08-19T01:05:16.113Z,18.60
2022-08-19T01:08:06.757Z,18.59
2022-08-19T01:10:57.382Z,18.50
2022-08-19T01:13:50.066Z,18.40
2022-08-19T01:16:39.915Z,18.27
2022-08-19T01:19:43.663Z,18.23
2022-08-19T01:22:40.145Z,18.10
2022-08-19T01:25:42.110Z,18.01
2022-08-19T01:28:34.035Z,18.06
2022-08-19T01:31:33.214Z,17.97
2022-08-19T01:34:20.969Z,17.96
2022-08-19T01:37:12.300Z,17.97
2022-08-19T01:39:59.437Z,17.85
2022-08-19T01:42:46.493Z,17.84
2022-08-19T01:45:35.438Z,17.84
2022-08-19T01:48:23.016Z,17.83
2022-08-19T01:51:11.918Z,17.77
2022-08-19T01:53:59.269Z,17.76
2022-08-19T01:56:46.266Z,17.60
2022-08-19T01:59:34.384Z,17.49
2022-08-19T02:02:21.751Z,17.51
2022-08-19T02:05:10.690Z,17.43
2022-08-19T02:07:58.588Z,17.36
2022-08-19T02:10:46.121Z,17.37
2022-08-19T02:13:33.936Z,17.32
2022-08-19T02:16:21.706Z,17.31
2022-08-19T02:19:09.050Z,17.30
2022-08-19T02:21:56.103Z,17.24
2022-08-19T02:24:43.325Z,17.21
2022-08-19T02:27:30.383Z,17.14
2022-08-19T02:30:18.409Z,17.03
2022-08-19T02:33:06.090Z,17.03
2022-08-19T02:35:53.154Z,17.02
2022-08-19T02:38:40.766Z,16.98
2022-08-19T02:41:30.305Z,16.96
2022-08-19T02:44:29.882Z,16.94
2022-08-19T02:47:20.078Z,16.92
2022-08-19T02:50:07.524Z,16.91
2022-08-19T02:52:54.670Z,16.89
2022-08-19T02:55:47.485Z,16.88
2022-08-19T02:58:34.819Z,16.88
2022-08-19T03:01:28.898Z,16.84
2022-08-19T03:04:17.249Z,16.80
2022-08-19T03:07:10.558Z,16.78
2022-08-19T03:09:58.363Z,16.77
2022-08-19T03:12:47.242Z,16.70
2022-08-19T03:15:34.192Z,16.74
2022-08-19T03:18:23.181Z,16.71
2022-08-19T03:21:12.273Z,16.66
2022-08-19T03:24:02.462Z,16.65
2022-08-19T03:26:53.033Z,16.61
2022-08-19T03:29:43.321Z,16.60
2022-08-19T03:32:32.539Z,16.58
2022-08-19T03:35:21.310Z,16.55
2022-08-19T03:38:08.418Z,16.49
2022-08-19T03:40:55.407Z,16.46
2022-08-19T03:43:44.003Z,16.41
2022-08-19T03:46:33.602Z,16.37
2022-08-19T03:49:21.290Z,16.37
2022-08-19T03:52:15.272Z,16.34
2022-08-19T03:55:02.686Z,16.36
2022-08-19T03:57:50.038Z,16.39
2022-08-19T04:00:37.901Z,16.34
2022-08-19T04:03:27.801Z,16.39
2022-08-19T04:06:23.886Z,16.41
2022-08-19T04:09:12.026Z,16.42
2022-08-19T04:11:59.577Z,16.41
2022-08-19T04:14:46.856Z,16.39
2022-08-19T04:17:34.278Z,16.41
2022-08-19T04:20:21.316Z,16.44
2022-08-19T04:23:08.537Z,16.49
2022-08-19T04:25:56.790Z,16.52
2022-08-19T04:28:44.723Z,16.60
2022-08-19T04:31:36.585Z,16.64
2022-08-19T04:34:25.559Z,16.55
2022-08-19T04:37:13.623Z,16.56
2022-08-19T04:40:19.502Z,16.50
2022-08-19T04:43:06.481Z,16.48
2022-08-19T04:45:56.852Z,16.41
2022-08-19T04:48:49.313Z,16.33
2022-08-19T04:51:37.502Z,16.37
2022-08-19T04:54:37.903Z,16.42
2022-08-19T04:57:27.305Z,16.41
2022-08-19T05:00:14.757Z,16.39
2022-08-19T05:03:02.094Z,16.43
2022-08-19T05:05:50.086Z,16.43
2022-08-19T05:08:40.922Z,16.55
2022-08-19T05:11:33.757Z,16.54
2022-08-19T05:14:22.094Z,16.62
2022-08-19T05:17:26.606Z,16.61
2022-08-19T05:20:33.014Z,16.71
2022-08-19T05:23:22.753Z,16.74
2022-08-19T05:26:12.040Z,16.88
2022-08-19T05:28:59.029Z,16.89
2022-08-19T05:31:50.457Z,16.93
2022-08-19T05:34:39.261Z,17.03
2022-08-19T05:37:28.662Z,17.16
2022-08-19T05:40:15.834Z,17.14
2022-08-19T05:43:04.317Z,17.27
2022-08-19T05:45:51.741Z,17.37
2022-08-19T05:48:38.728Z,17.49
2022-08-19T05:51:28.997Z,17.71
2022-08-19T05:54:16.558Z,17.70
2022-08-19T05:57:04.026Z,17.77
2022-08-19T05:59:53.082Z,17.87
2022-08-19T06:02:45.800Z,18.12
2022-08-19T06:05:33.343Z,18.43
2022-08-19T06:08:35.102Z,18.54
2022-08-19T06:11:33.758Z,18.18
2022-08-19T06:14:27.688Z,18.11
2022-08-19T06:17:15.117Z,17.99
2022-08-19T06:20:04.531Z,18.04
2022-08-19T06:22:52.502Z,17.99
2022-08-19T06:25:41.101Z,18.16
2022-08-19T06:28:29.319Z,18.39
2022-08-19T06:31:23.408Z,18.59
2022-08-19T06:34:10.870Z,18.21
2022-08-19T06:37:02.345Z,18.24
2022-08-19T06:39:50.837Z,18.55
2022-08-19T06:42:39.598Z,18.87
2022-08-19T06:45:34.589Z,18.69
2022-08-19T06:48:22.908Z,19.03
2022-08-19T06:51:16.711Z,18.89
2022-08-19T06:54:06.805Z,18.94
2022-08-19T06:57:08.419Z,19.05
2022-08-19T06:59:57.509Z,18.99
2022-08-19T07:02:49.604Z,18.79
2022-08-19T07:05:45.780Z,18.87
2022-08-19T07:08:35.054Z,18.93
2022-08-19T07:11:22.261Z,19.04
2022-08-19T07:14:11.315Z,19.24
2022-08-19T07:17:09.897Z,19.13
2022-08-19T07:19:57.505Z,19.28
2022-08-19T07:22:46.456Z,19.31
2022-08-19T07:25:33.534Z,19.52
2022-08-19T07:28:24.031Z,19.87
2022-08-19T07:31:22.732Z,20.05
2022-08-19T07:34:12.848Z,19.81
2022-08-19T07:37:00.647Z,19.93
2022-08-19T07:39:48.637Z,19.89
2022-08-19T07:42:35.891Z,19.94
2022-08-19T07:45:23.107Z,19.87
2022-08-19T07:48:10.460Z,20.02
2022-08-19T07:51:02.802Z,20.15
2022-08-19T07:53:51.613Z,20.25
2022-08-19T07:56:39.541Z,20.31
2022-08-19T07:59:27.058Z,20.32
2022-08-19T08:02:14.421Z,20.56
2022-08-19T08:05:20.331Z,20.27
2022-08-19T08:08:43.932Z,20.43
2022-08-19T08:11:34.328Z,20.66
2022-08-19T08:14:39.695Z,20.70
2022-08-19T08:17:48.702Z,20.67
2022-08-19T08:20:37.007Z,20.47
2022-08-19T08:23:26.597Z,20.73
2022-08-19T08:26:19.382Z,21.06
2022-08-19T08:29:12.284Z,20.79
2022-08-19T08:32:00.338Z,20.76
2022-08-19T08:34:52.399Z,21.03
2022-08-19T08:37:40.397Z,21.38
2022-08-19T08:40:52.401Z,21.22
2022-08-19T08:43:44.572Z,20.68
2022-08-19T08:46:39.802Z,21.16
2022-08-19T08:49:41.257Z,21.34
2022-08-19T08:52:37.596Z,21.19
2022-08-19T08:55:36.469Z,21.25
2022-08-19T08:58:35.778Z,21.15
2022-08-19T09:01:23.460Z,21.46
2022-08-19T09:04:14.365Z,21.95
2022-08-19T09:07:18.502Z,22.27
2022-08-19T09:10:30.183Z,22.37
2022-08-19T09:13:42.504Z,22.31
2022-08-19T09:16:31.057Z,22.48
2022-08-19T09:19:22.393Z,22.86
2022-08-19T09:22:10.010Z,22.85
2022-08-19T09:24:57.687Z,22.97
2022-08-19T09:27:45.790Z,23.17
2022-08-19T09:30:42.801Z,23.66
2022-08-19T09:33:30.136Z,23.70
2022-08-19T09:36:29.548Z,24.01
2022-08-19T09:39:20.733Z,23.85
2022-08-19T09:42:20.243Z,24.09
2022-08-19T09:45:22.708Z,24.56
2022-08-19T09:48:11.733Z,24.31
2022-08-19T09:51:27.308Z,24.28
2022-08-19T09:54:15.747Z,24.80
2022-08-19T09:57:10.768Z,24.51
2022-08-19T09:59:57.737Z,25.04
2022-08-19T10:02:44.790Z,25.06
2022-08-19T10:05:55.306Z,25.12
2022-08-19T10:08:50.190Z,25.64
2022-08-19T10:11:51.055Z,25.83
2022-08-19T10:14:40.969Z,25.95
2022-08-19T10:17:31.691Z,25.53
2022-08-19T10:20:21.033Z,25.94
2022-08-19T10:23:08.072Z,25.77
2022-08-19T10:28:58.177Z,25.84
2022-08-19T10:32:01.058Z,26.25
2022-08-19T10:34:57.149Z,26.13
2022-08-19T10:37:57.108Z,26.12
2022-08-19T10:40:44.999Z,26.58
2022-08-19T10:43:33.349Z,26.91
2022-08-19T10:46:23.067Z,26.85
2022-08-19T10:49:12.485Z,27.08
2022-08-19T10:52:18.767Z,27.45
2022-08-19T10:55:29.265Z,27.60
2022-08-19T10:58:23.728Z,27.48
2022-08-19T11:01:11.269Z,27.25
2022-08-19T11:03:59.021Z,27.00
2022-08-19T11:06:53.415Z,26.79
2022-08-19T11:09:42.933Z,27.02
2022-08-19T11:12:30.297Z,26.90
2022-08-19T11:15:17.649Z,26.98
2022-08-19T11:18:04.896Z,27.14
2022-08-19T11:21:15.487Z,27.61
2022-08-19T11:24:07.540Z,27.44
2022-08-19T11:27:01.131Z,27.90
2022-08-19T11:29:48.751Z,28.02
2022-08-19T11:32:36.469Z,28.10
2022-08-19T11:35:24.997Z,27.88
2022-08-19T11:38:12.410Z,28.01
2022-08-19T11:41:01.685Z,27.97
2022-08-19T11:43:49.480Z,27.75
2022-08-19T11:46:38.894Z,27.52
2022-08-19T11:49:26.224Z,27.88
2022-08-19T11:52:14.066Z,27.98
2022-08-19T11:55:03.291Z,27.73
2022-08-19T11:57:53.723Z,28.07
2022-08-19T12:00:41.582Z,28.70
2022-08-19T12:03:30.681Z,28.93
2022-08-19T12:06:26.717Z,28.92
2022-08-19T12:09:15.276Z,28.61
2022-08-19T12:12:03.489Z,28.51
2022-08-19T12:14:51.917Z,28.65
2022-08-19T12:17:39.368Z,28.66
2022-08-19T12:20:27.289Z,28.72
2022-08-19T12:23:16.152Z,28.72
2022-08-19T12:26:03.249Z,28.93
2022-08-19T12:28:50.216Z,28.53
2022-08-19T12:31:37.310Z,28.87
2022-08-19T12:34:25.733Z,28.70
2022-08-19T12:37:13.165Z,28.84
2022-08-19T12:40:00.628Z,28.80
2022-08-19T12:42:48.173Z,28.96
2022-08-19T12:45:35.612Z,29.38
2022-08-19T12:48:33.246Z,29.35
2022-08-19T12:51:21.626Z,28.87
2022-08-19T12:54:08.943Z,28.80
2022-08-19T12:56:56.560Z,29.06
2022-08-19T12:59:43.986Z,29.10
2022-08-19T13:02:33.152Z,29.32
2022-08-19T13:05:30.705Z,29.28
2022-08-19T13:08:18.186Z,29.07
2022-08-19T13:11:20.210Z,29.41
2022-08-19T13:14:07.314Z,29.42
2022-08-19T13:16:54.314Z,29.63
2022-08-19T13:19:41.285Z,29.09
2022-08-19T13:22:28.354Z,28.90
2022-08-19T13:25:18.513Z,28.98
2022-08-19T13:28:07.601Z,29.39
2022-08-19T13:31:13.191Z,29.43
2022-08-19T13:34:00.313Z,29.64
2022-08-19T13:36:47.580Z,29.75
2022-08-19T13:39:35.922Z,29.60
2022-08-19T13:42:23.010Z,29.48
2022-08-19T13:45:10.888Z,29.60
2022-08-19T13:47:59.718Z,29.49
2022-08-19T13:50:49.286Z,30.03
2022-08-19T13:53:38.788Z,30.10
2022-08-19T13:56:26.672Z,30.15
2022-08-19T13:59:14.170Z,30.27
2022-08-19T14:02:02.531Z,30.41
2022-08-19T14:04:49.626Z,30.29
2022-08-19T14:07:37.357Z,29.78
2022-08-19T14:10:25.823Z,29.71
2022-08-19T14:13:16.839Z,29.77
2022-08-19T14:16:09.705Z,29.57
2022-08-19T14:18:56.769Z,29.87
2022-08-19T14:21:44.333Z,30.11
2022-08-19T14:24:31.519Z,29.69
2022-08-19T14:27:19.449Z,29.62
2022-08-19T14:30:10.324Z,29.98
2022-08-19T14:32:59.789Z,30.08
2022-08-19T14:35:46.892Z,30.40
2022-08-19T14:38:34.467Z,29.93
2022-08-19T14:41:24.741Z,29.89
2022-08-19T14:44:16.762Z,30.00
2022-08-19T14:47:06.473Z,29.91
2022-08-19T14:49:57.134Z,29.70
2022-08-19T14:52:44.413Z,29.59
2022-08-19T14:55:32.754Z,29.67
2022-08-19T14:58:29.230Z,29.95
2022-08-19T15:01:19.272Z,29.92
2022-08-19T15:04:06.937Z,29.55
2022-08-19T15:06:55.323Z,29.78
2022-08-19T15:09:42.991Z,29.75
2022-08-19T15:12:30.050Z,29.45
2022-08-19T15:15:18.425Z,29.55
2022-08-19T15:18:05.613Z,29.50
2022-08-19T15:20:52.722Z,29.67
2022-08-19T15:23:40.754Z,29.64
2022-08-19T15:26:33.593Z,29.91
2022-08-19T15:29:22.547Z,29.78
2022-08-19T15:32:09.934Z,29.45
2022-08-19T15:34:57.114Z,29.62
2022-08-19T15:37:44.687Z,29.65
2022-08-19T15:40:31.918Z,29.69
2022-08-19T15:43:22.234Z,29.42
2022-08-19T15:46:09.240Z,28.87
2022-08-19T15:48:57.522Z,28.60
2022-08-19T15:51:49.854Z,28.86
2022-08-19T15:54:36.818Z,28.61
2022-08-19T15:57:26.607Z,28.38
2022-08-19T16:00:32.303Z,28.39
2022-08-19T16:03:41.308Z,28.53
2022-08-19T16:06:29.506Z,28.29
2022-08-19T16:09:22.115Z,28.29
2022-08-19T16:12:12.300Z,28.47
2022-08-19T16:14:59.542Z,28.38
2022-08-19T16:17:55.349Z,28.35
2022-08-19T16:20:44.401Z,28.39
2022-08-19T16:23:31.413Z,28.72
2022-08-19T16:26:20.052Z,28.66
2022-08-19T16:29:12.981Z,28.65
2022-08-19T16:32:00.935Z,29.17
2022-08-19T16:34:50.555Z,29.51
2022-08-19T16:37:38.126Z,29.50
2022-08-19T16:40:25.183Z,29.32
2022-08-19T16:43:12.152Z,28.98
2022-08-19T16:45:59.646Z,28.41
2022-08-19T16:48:46.750Z,28.27
2022-08-19T16:51:34.086Z,27.99
2022-08-19T16:54:21.130Z,28.06
2022-08-19T16:57:08.142Z,27.89
2022-08-19T16:59:59.708Z,28.11
2022-08-19T17:02:46.697Z,27.80
2022-08-19T17:05:33.748Z,27.67
2022-08-19T17:08:22.510Z,27.71
2022-08-19T17:11:18.134Z,27.29
2022-08-19T17:14:06.054Z,27.34
2022-08-19T17:16:53.838Z,27.38
2022-08-19T17:19:42.288Z,27.23
2022-08-19T17:22:29.759Z,26.97
2022-08-19T17:25:16.962Z,26.87
2022-08-19T17:28:11.961Z,26.90
2022-08-19T17:30:59.013Z,26.86
2022-08-19T17:33:48.500Z,26.65
2022-08-19T17:36:35.983Z,26.74
2022-08-19T17:39:23.121Z,26.82
2022-08-19T17:42:11.012Z,26.56
2022-08-19T17:45:01.070Z,26.53
2022-08-19T17:47:48.136Z,26.41
2022-08-19T17:50:36.180Z,26.08
2022-08-19T17:53:24.490Z,26.08
2022-08-19T17:56:13.750Z,26.15
2022-08-19T17:59:01.744Z,26.01
2022-08-19T18:01:53.213Z,25.82
2022-08-19T18:04:46.850Z,25.78
2022-08-19T18:07:35.685Z,25.56
2022-08-19T18:10:30.807Z,25.37
2022-08-19T18:13:22.298Z,25.25
2022-08-19T18:16:11.521Z,25.11
2022-08-19T18:18:58.676Z,24.98
2022-08-19T18:21:47.066Z,24.71
2022-08-19T18:24:34.083Z,24.63
2022-08-19T18:27:21.319Z,24.45
2022-08-19T18:30:10.566Z,24.24
2022-08-19T18:32:58.588Z,24.09
2022-08-19T18:35:48.790Z,23.97
2022-08-19T18:38:54.269Z,23.78
2022-08-19T18:42:00.245Z,23.58
2022-08-19T18:45:05.453Z,23.42
2022-08-19T18:48:26.719Z,23.31
2022-08-19T18:51:17.460Z,23.12
2022-08-19T18:54:04.798Z,22.99
2022-08-19T18:56:55.961Z,22.89
2022-08-19T18:59:45.072Z,22.84
2022-08-19T19:02:39.012Z,22.65
2022-08-19T19:05:26.046Z,22.55
2022-08-19T19:08:16.586Z,22.51
2022-08-19T19:11:06.040Z,22.44
2022-08-19T19:13:53.101Z,22.34
2022-08-19T19:16:44.395Z,22.28
2022-08-19T19:19:33.341Z,22.22
2022-08-19T19:22:22.145Z,22.15
2022-08-19T19:25:10.864Z,22.11
2022-08-19T19:27:57.913Z,21.95
2022-08-19T19:30:44.955Z,21.89
2022-08-19T19:33:32.266Z,21.86
2022-08-19T19:36:19.451Z,21.79
2022-08-19T19:39:07.534Z,21.77
2022-08-19T19:41:54.915Z,21.64
2022-08-19T19:44:47.261Z,21.60
2022-08-19T19:47:34.514Z,21.53
2022-08-19T19:50:21.567Z,21.73
2022-08-19T19:53:08.805Z,21.77
2022-08-19T19:55:59.894Z,21.58
2022-08-19T19:58:50.652Z,21.62
2022-08-19T20:01:37.778Z,21.47
2022-08-19T20:04:24.953Z,21.38
2022-08-19T20:07:11.972Z,21.31
2022-08-19T20:10:00.315Z,21.25
2022-08-19T20:12:47.603Z,21.22
2022-08-19T20:15:39.056Z,21.22
2022-08-19T20:18:28.871Z,21.16
2022-08-19T20:21:17.133Z,21.14
2022-08-19T20:24:10.371Z,21.14
2022-08-19T20:26:58.051Z,21.09
2022-08-19T20:29:45.057Z,21.04
2022-08-19T20:32:32.120Z,20.99
2022-08-19T20:35:21.670Z,20.92
2022-08-19T20:38:09.569Z,20.82
2022-08-19T20:40:56.621Z,20.69
2022-08-19T20:43:44.254Z,20.75
2022-08-19T20:46:32.472Z,20.79
2022-08-19T20:49:19.477Z,20.79
2022-08-19T20:52:07.354Z,20.68
2022-08-19T20:54:54.416Z,20.71
2022-08-19T20:57:41.421Z,20.67
2022-08-19T21:00:30.527Z,20.61
2022-08-19T21:03:22.779Z,20.54
2022-08-19T21:06:11.613Z,20.50
2022-08-19T21:09:01.029Z,20.49
2022-08-19T21:11:48.280Z,20.51
2022-08-19T21:14:40.165Z,20.50
2022-08-19T21:17:27.148Z,20.55
2022-08-19T21:20:14.907Z,20.58
2022-08-19T21:23:07.421Z,20.64
2022-08-19T21:25:56.500Z,20.65
2022-08-19T21:28:43.453Z,20.78
2022-08-19T21:31:30.543Z,20.79
2022-08-19T21:34:18.574Z,20.87
2022-08-19T21:37:05.996Z,20.91
2022-08-19T21:39:58.719Z,20.90
2022-08-19T21:42:46.601Z,20.81
2022-08-19T21:45:33.926Z,20.90
2022-08-19T21:48:20.949Z,20.83
2022-08-19T21:51:08.674Z,20.80
2022-08-19T21:53:55.803Z,20.92
2022-08-19T21:56:42.850Z,20.98
2022-08-19T21:59:29.847Z,21.05
2022-08-19T22:02:21.526Z,21.04
2022-08-19T22:05:09.406Z,21.03
2022-08-19T22:07:58.103Z,21.05
2022-08-19T22:10:46.989Z,21.03
2022-08-19T22:13:40.400Z,21.01
2022-08-19T22:16:28.758Z,21.02
2022-08-19T22:19:16.575Z,21.00
2022-08-19T22:22:03.838Z,20.91
2022-08-19T22:24:53.054Z,20.87
2022-08-19T22:27:40.329Z,20.89
2022-08-19T22:30:27.945Z,20.95
2022-08-19T22:33:22.689Z,20.95
2022-08-19T22:36:09.792Z,20.93
2022-08-19T22:38:57.062Z,20.93
2022-08-19T22:41:44.226Z,20.94
2022-08-19T22:44:31.214Z,20.95
2022-08-19T22:47:18.618Z,20.95
2022-08-19T22:50:07.468Z,20.99
2022-08-19T22:53:07.319Z,20.97
2022-08-19T22:55:54.386Z,21.00
2022-08-19T22:58:42.340Z,20.98
2022-08-19T23:01:30.890Z,20.97
2022-08-19T23:04:17.994Z,20.91
2022-08-19T23:07:05.509Z,20.84
2022-08-19T23:09:52.568Z,20.86
2022-08-19T23:12:43.665Z,20.85
2022-08-19T23:15:32.481Z,20.89
2022-08-19T23:18:20.188Z,20.89
2022-08-19T23:21:09.758Z,20.82
2022-08-19T23:23:56.838Z,20.85
2022-08-19T23:27:03.983Z,20.87
2022-08-19T23:30:09.210Z,20.83
2022-08-19T23:32:58.690Z,20.77
2022-08-19T23:35:45.671Z,20.76
2022-08-19T23:38:33.114Z,20.71
2022-08-19T23:41:23.170Z,20.65
2022-08-19T23:44:14.909Z,20.57
2022-08-19T23:47:04.800Z,20.57
2022-08-19T23:49:53.969Z,20.65
2022-08-19T23:52:49.993Z,20.53
2022-08-19T23:55:40.209Z,20.50
2022-08-19T23:58:29.992Z,20.57
